Alpine Heights, CA

3:18 PM PDT on July 06, 2015 (GMT -0700)
Hale Dr | | Change Station
CLOSE
Current Station
Personal Weather Station
Location: Alpine, CA
Elevation: 2100 ft
Nearby Weather Stations

Elev 2100 ft 32.85 °N, 116.76 °W | Updated 41 seconds ago

Clear
Clear
84.2 °F
Feels Like 85 °F
N
3.7
Wind Variable Wind from West

Today
High -- | Low -- °F
--% Chance of Precip.
Yesterday
High -- | Low -- °F
Precip. -- in
5:44 AM 7:58 PM
Waning Gibbous, 71% visible
Pressure 30.02 in
Visibility 10.0 miles
Clouds Mostly Cloudy 2400 ft
Heat Index 85 °F
Dew Point 63 °F
Humidity 49%
Rainfall 0.00 in
Snow Depth Not available.
UV 5 out of 12
Pollen 4.50 out of 12
Air Quality Not available.
Flu Activity Not available.
METAR KSEE 062155Z AUTO 28007KT 10SM BKN024 25/16 A3002 RMK AO2

More Conditions Fewer Conditions

Pressure 30.02 in
Visibility 10.0 miles
Clouds Mostly Cloudy 2400 ft
Heat Index 85 °F
Dew Point 63 °F
Humidity 49%
Rainfall 0.00 in
Snow Depth Not available.
UV 5 out of 12
Pollen 4.50 out of 12
Air Quality Not available.
Flu Activity Not available.
METAR KSEE 062155Z AUTO 28007KT 10SM BKN024 25/16 A3002 RMK AO2

More Conditions Fewer Conditions

10-Day Weather Forecast

×

Almanac

Astronomy

Jul. 06, 2015 Rise Set
Actual Time
Civil Twilight
Nautical Twilight
Astronomical Twilight
Moon
Length of Visible Light
Length of Day
Tomorrow will be .
, % of the Moon is Illuminated

Today's Extremes

State Highs State Lows

Community

WunderPhotos

Upload Photos

1,835,661 photos uploaded!

WunderBlogs® & News

Nearby

Air Quality

  Air Quality AQ Index Pollutant
Not available.

Snow Depth

Station Depth Elevation

Earthquake Activity

City Distance Mag. Time & Date
Minimum magnitude displayed is 2.5.

Coastal Water Temperatures

Place Temperature

Stations

Nearby Weather Stations

Station Location Temp. Windchill Dew Point Humidity Wind Precip. Elev Updated Type